Terminal Aerodrome Forecast
Issued by NWS Sioux Falls, SD

Home | Current Version | Previous Version | Graphics & Text | Print | Product List | Glossary On
Versions: 1 2 3 4 5 6 7 8 9 10 11 12 13 14 15 16 17 18 19 20 21 22 23 24 25 26 27 28 29 30 31
000
FTUS43 KFSD 181140
TAFSUX
TAF
KSUX 181140Z 1812/1912 13007KT P6SM -SHRA SCT012 OVC022
     FM181400 13006KT P6SM VCSH OVC008
     FM181600 15007KT P6SM OVC007
     FM181800 17010KT P6SM OVC012
     FM182300 15008KT P6SM SCT035
     FM190700 13006KT P6SM BKN010
     FM191000 13006KT 4SM BR BKN005=

USA.gov is the U.S. government's official web portal to all federal, state and local government web resources and services.